sensor_id;sensor_type;location;lat;lon;timestamp;temperature;humidity
59307;DHT22;47983;53.016;-2.260;2023-05-29T00:00:32;10.60;99.90
59307;DHT22;47983;53.016;-2.260;2023-05-29T00:03:00;10.60;99.90
59307;DHT22;47983;53.016;-2.260;2023-05-29T00:05:32;10.50;99.90
59307;DHT22;47983;53.016;-2.260;2023-05-29T00:08:00;10.50;99.90
59307;DHT22;47983;53.016;-2.260;2023-05-29T00:10:30;10.50;99.90
59307;DHT22;47983;53.016;-2.260;2023-05-29T00:15:28;10.50;99.90
59307;DHT22;47983;53.016;-2.260;2023-05-29T00:17:57;10.50;99.90
59307;DHT22;47983;53.016;-2.260;2023-05-29T00:20:25;10.40;99.90
59307;DHT22;47983;53.016;-2.260;2023-05-29T00:22:53;10.40;99.90
59307;DHT22;47983;53.016;-2.260;2023-05-29T00:25:21;10.40;99.90
59307;DHT22;47983;53.016;-2.260;2023-05-29T00:27:49;10.40;99.90
59307;DHT22;47983;53.016;-2.260;2023-05-29T00:30:17;10.40;99.90
59307;DHT22;47983;53.016;-2.260;2023-05-29T00:32:45;10.30;99.90
59307;DHT22;47983;53.016;-2.260;2023-05-29T00:35:14;10.30;99.90
59307;DHT22;47983;53.016;-2.260;2023-05-29T00:37:42;10.30;99.90
59307;DHT22;47983;53.016;-2.260;2023-05-29T00:40:10;10.20;99.90
59307;DHT22;47983;53.016;-2.260;2023-05-29T00:42:38;10.20;99.90
59307;DHT22;47983;53.016;-2.260;2023-05-29T00:45:07;10.10;99.90
59307;DHT22;47983;53.016;-2.260;2023-05-29T00:47:35;10.10;99.90
59307;DHT22;47983;53.016;-2.260;2023-05-29T00:50:04;10.00;99.90
59307;DHT22;47983;53.016;-2.260;2023-05-29T00:52:32;10.00;99.90
59307;DHT22;47983;53.016;-2.260;2023-05-29T00:55:01;10.00;99.90
59307;DHT22;47983;53.016;-2.260;2023-05-29T00:57:33;10.00;99.90
59307;DHT22;47983;53.016;-2.260;2023-05-29T01:00:03;9.90;99.90
59307;DHT22;47983;53.016;-2.260;2023-05-29T01:02:44;9.90;99.90
59307;DHT22;47983;53.016;-2.260;2023-05-29T01:05:13;9.90;99.90
59307;DHT22;47983;53.016;-2.260;2023-05-29T01:07:42;9.80;99.90
59307;DHT22;47983;53.016;-2.260;2023-05-29T01:10:11;9.80;99.90
59307;DHT22;47983;53.016;-2.260;2023-05-29T01:12:59;9.70;99.90
59307;DHT22;47983;53.016;-2.260;2023-05-29T01:15:51;9.70;99.90
59307;DHT22;47983;53.016;-2.260;2023-05-29T01:23:52;9.50;99.90
59307;DHT22;47983;53.016;-2.260;2023-05-29T01:29:22;9.40;99.90
59307;DHT22;47983;53.016;-2.260;2023-05-29T01:31:51;9.40;99.90
59307;DHT22;47983;53.016;-2.260;2023-05-29T01:34:21;9.30;99.90
59307;DHT22;47983;53.016;-2.260;2023-05-29T01:36:49;9.30;99.90
59307;DHT22;47983;53.016;-2.260;2023-05-29T01:39:18;9.20;99.90
59307;DHT22;47983;53.016;-2.260;2023-05-29T01:41:47;9.20;99.90
59307;DHT22;47983;53.016;-2.260;2023-05-29T01:44:16;9.20;99.90
59307;DHT22;47983;53.016;-2.260;2023-05-29T01:46:46;9.10;99.90
59307;DHT22;47983;53.016;-2.260;2023-05-29T01:49:15;9.10;99.90
59307;DHT22;47983;53.016;-2.260;2023-05-29T01:51:44;9.10;99.90
59307;DHT22;47983;53.016;-2.260;2023-05-29T01:54:15;9.00;99.90
59307;DHT22;47983;53.016;-2.260;2023-05-29T01:56:43;9.00;99.90
59307;DHT22;47983;53.016;-2.260;2023-05-29T01:59:13;8.90;99.90
59307;DHT22;47983;53.016;-2.260;2023-05-29T02:01:41;8.90;99.90
59307;DHT22;47983;53.016;-2.260;2023-05-29T02:04:09;8.90;99.90
59307;DHT22;47983;53.016;-2.260;2023-05-29T02:06:37;8.90;99.90
59307;DHT22;47983;53.016;-2.260;2023-05-29T02:09:05;8.80;99.90
59307;DHT22;47983;53.016;-2.260;2023-05-29T02:11:34;8.80;99.90
59307;DHT22;47983;53.016;-2.260;2023-05-29T02:14:02;8.70;99.90
59307;DHT22;47983;53.016;-2.260;2023-05-29T02:16:31;8.60;99.90
59307;DHT22;47983;53.016;-2.260;2023-05-29T02:19:01;8.60;99.90
59307;DHT22;47983;53.016;-2.260;2023-05-29T02:21:30;8.50;99.90
59307;DHT22;47983;53.016;-2.260;2023-05-29T02:23:59;8.50;99.90
59307;DHT22;47983;53.016;-2.260;2023-05-29T02:26:26;8.50;99.90
59307;DHT22;47983;53.016;-2.260;2023-05-29T02:28:54;8.40;99.90
59307;DHT22;47983;53.016;-2.260;2023-05-29T02:31:22;8.40;99.90
59307;DHT22;47983;53.016;-2.260;2023-05-29T02:33:50;8.40;99.90
59307;DHT22;47983;53.016;-2.260;2023-05-29T02:36:17;8.30;99.90
59307;DHT22;47983;53.016;-2.260;2023-05-29T02:38:45;8.30;99.90
59307;DHT22;47983;53.016;-2.260;2023-05-29T02:41:13;8.20;99.90
59307;DHT22;47983;53.016;-2.260;2023-05-29T02:43:41;8.20;99.90
59307;DHT22;47983;53.016;-2.260;2023-05-29T02:46:09;8.20;99.90
59307;DHT22;47983;53.016;-2.260;2023-05-29T02:48:37;8.10;99.90
59307;DHT22;47983;53.016;-2.260;2023-05-29T02:51:05;8.10;99.90
59307;DHT22;47983;53.016;-2.260;2023-05-29T02:53:33;8.10;99.90
59307;DHT22;47983;53.016;-2.260;2023-05-29T02:56:01;8.00;99.90
59307;DHT22;47983;53.016;-2.260;2023-05-29T02:58:30;8.00;99.90
59307;DHT22;47983;53.016;-2.260;2023-05-29T03:00:58;7.90;99.90
59307;DHT22;47983;53.016;-2.260;2023-05-29T03:03:27;7.80;99.90
59307;DHT22;47983;53.016;-2.260;2023-05-29T03:05:55;7.80;99.90
59307;DHT22;47983;53.016;-2.260;2023-05-29T03:08:24;7.80;99.90
59307;DHT22;47983;53.016;-2.260;2023-05-29T03:10:53;7.80;99.90
59307;DHT22;47983;53.016;-2.260;2023-05-29T03:13:22;7.70;99.90
59307;DHT22;47983;53.016;-2.260;2023-05-29T03:15:56;7.70;99.90
59307;DHT22;47983;53.016;-2.260;2023-05-29T03:18:25;7.60;99.90
59307;DHT22;47983;53.016;-2.260;2023-05-29T03:20:54;7.60;99.90
59307;DHT22;47983;53.016;-2.260;2023-05-29T03:23:22;7.60;99.90
59307;DHT22;47983;53.016;-2.260;2023-05-29T03:25:54;7.50;99.90
59307;DHT22;47983;53.016;-2.260;2023-05-29T03:28:22;7.50;99.90
59307;DHT22;47983;53.016;-2.260;2023-05-29T03:30:51;7.50;99.90
59307;DHT22;47983;53.016;-2.260;2023-05-29T03:33:21;7.40;99.90
59307;DHT22;47983;53.016;-2.260;2023-05-29T03:36:01;7.40;99.90
59307;DHT22;47983;53.016;-2.260;2023-05-29T03:38:29;7.30;99.90
59307;DHT22;47983;53.016;-2.260;2023-05-29T03:41:00;7.30;99.90
59307;DHT22;47983;53.016;-2.260;2023-05-29T03:43:28;7.30;99.90
59307;DHT22;47983;53.016;-2.260;2023-05-29T03:45:56;7.30;99.90
59307;DHT22;47983;53.016;-2.260;2023-05-29T03:48:27;7.20;99.90
59307;DHT22;47983;53.016;-2.260;2023-05-29T03:50:55;7.20;99.90
59307;DHT22;47983;53.016;-2.260;2023-05-29T03:53:30;7.20;99.90
59307;DHT22;47983;53.016;-2.260;2023-05-29T03:55:58;7.10;99.90
59307;DHT22;47983;53.016;-2.260;2023-05-29T03:58:27;7.10;99.90
59307;DHT22;47983;53.016;-2.260;2023-05-29T04:00:55;7.10;99.90
59307;DHT22;47983;53.016;-2.260;2023-05-29T04:03:23;7.00;99.90
59307;DHT22;47983;53.016;-2.260;2023-05-29T04:05:51;7.00;99.90
59307;DHT22;47983;53.016;-2.260;2023-05-29T04:08:19;7.00;99.90
59307;DHT22;47983;53.016;-2.260;2023-05-29T04:10:48;7.00;99.90
59307;DHT22;47983;53.016;-2.260;2023-05-29T04:13:16;7.00;99.90
59307;DHT22;47983;53.016;-2.260;2023-05-29T04:15:44;6.90;99.90
59307;DHT22;47983;53.016;-2.260;2023-05-29T04:18:12;6.90;99.90
59307;DHT22;47983;53.016;-2.260;2023-05-29T04:20:40;6.90;99.90
59307;DHT22;47983;53.016;-2.260;2023-05-29T04:23:09;6.90;99.90
59307;DHT22;47983;53.016;-2.260;2023-05-29T04:25:37;6.90;99.90
59307;DHT22;47983;53.016;-2.260;2023-05-29T04:28:05;6.90;99.90
59307;DHT22;47983;53.016;-2.260;2023-05-29T04:30:33;6.90;99.90
59307;DHT22;47983;53.016;-2.260;2023-05-29T04:33:03;6.90;99.90
59307;DHT22;47983;53.016;-2.260;2023-05-29T04:35:33;6.90;99.90
59307;DHT22;47983;53.016;-2.260;2023-05-29T04:38:04;6.90;99.90
59307;DHT22;47983;53.016;-2.260;2023-05-29T04:40:33;6.90;99.90
59307;DHT22;47983;53.016;-2.260;2023-05-29T04:43:02;6.90;99.90
59307;DHT22;47983;53.016;-2.260;2023-05-29T04:45:48;6.90;99.90
59307;DHT22;47983;53.016;-2.260;2023-05-29T04:48:17;6.90;99.90
59307;DHT22;47983;53.016;-2.260;2023-05-29T04:50:45;6.90;99.90
59307;DHT22;47983;53.016;-2.260;2023-05-29T04:53:13;6.90;99.90
59307;DHT22;47983;53.016;-2.260;2023-05-29T04:55:41;6.90;99.90
59307;DHT22;47983;53.016;-2.260;2023-05-29T04:58:08;6.90;99.90
59307;DHT22;47983;53.016;-2.260;2023-05-29T05:00:36;6.90;99.90
59307;DHT22;47983;53.016;-2.260;2023-05-29T05:03:04;7.00;99.90
59307;DHT22;47983;53.016;-2.260;2023-05-29T05:05:33;7.00;99.90
59307;DHT22;47983;53.016;-2.260;2023-05-29T05:08:02;7.00;99.90
59307;DHT22;47983;53.016;-2.260;2023-05-29T05:10:30;7.10;99.90
59307;DHT22;47983;53.016;-2.260;2023-05-29T05:12:58;7.20;99.90
59307;DHT22;47983;53.016;-2.260;2023-05-29T05:15:28;7.10;99.90
59307;DHT22;47983;53.016;-2.260;2023-05-29T05:17:56;7.30;99.90
59307;DHT22;47983;53.016;-2.260;2023-05-29T05:20:24;7.30;99.90
59307;DHT22;47983;53.016;-2.260;2023-05-29T05:22:58;7.40;99.90
59307;DHT22;47983;53.016;-2.260;2023-05-29T05:25:28;7.50;99.90
59307;DHT22;47983;53.016;-2.260;2023-05-29T05:27:56;7.50;99.90
59307;DHT22;47983;53.016;-2.260;2023-05-29T05:30:26;7.60;99.90
59307;DHT22;47983;53.016;-2.260;2023-05-29T05:32:54;7.60;99.90
59307;DHT22;47983;53.016;-2.260;2023-05-29T05:35:23;7.70;99.90
59307;DHT22;47983;53.016;-2.260;2023-05-29T05:37:52;7.70;99.90
59307;DHT22;47983;53.016;-2.260;2023-05-29T05:40:21;7.80;99.90
59307;DHT22;47983;53.016;-2.260;2023-05-29T05:42:55;7.90;99.90
59307;DHT22;47983;53.016;-2.260;2023-05-29T05:45:37;7.90;99.90
59307;DHT22;47983;53.016;-2.260;2023-05-29T05:48:10;8.00;99.90
59307;DHT22;47983;53.016;-2.260;2023-05-29T05:50:39;8.10;99.90
59307;DHT22;47983;53.016;-2.260;2023-05-29T05:53:07;8.20;99.90
59307;DHT22;47983;53.016;-2.260;2023-05-29T05:55:35;8.30;99.90
59307;DHT22;47983;53.016;-2.260;2023-05-29T05:58:04;8.40;99.90
59307;DHT22;47983;53.016;-2.260;2023-05-29T06:00:32;8.50;99.90
59307;DHT22;47983;53.016;-2.260;2023-05-29T06:02:59;8.60;99.90
59307;DHT22;47983;53.016;-2.260;2023-05-29T06:05:54;8.70;99.90
59307;DHT22;47983;53.016;-2.260;2023-05-29T06:08:21;9.00;99.90
59307;DHT22;47983;53.016;-2.260;2023-05-29T06:10:51;9.10;99.90
59307;DHT22;47983;53.016;-2.260;2023-05-29T06:13:20;9.30;99.90
59307;DHT22;47983;53.016;-2.260;2023-05-29T06:15:53;9.40;99.90
59307;DHT22;47983;53.016;-2.260;2023-05-29T06:18:21;9.40;99.90
59307;DHT22;47983;53.016;-2.260;2023-05-29T06:20:49;9.60;99.90
59307;DHT22;47983;53.016;-2.260;2023-05-29T06:23:18;9.70;99.90
59307;DHT22;47983;53.016;-2.260;2023-05-29T06:25:47;9.70;99.90
59307;DHT22;47983;53.016;-2.260;2023-05-29T06:28:15;9.70;99.90
59307;DHT22;47983;53.016;-2.260;2023-05-29T06:30:43;9.80;99.90
59307;DHT22;47983;53.016;-2.260;2023-05-29T06:33:20;9.90;99.90
59307;DHT22;47983;53.016;-2.260;2023-05-29T06:35:49;9.90;99.90
59307;DHT22;47983;53.016;-2.260;2023-05-29T06:38:17;10.00;99.90
59307;DHT22;47983;53.016;-2.260;2023-05-29T06:40:45;10.10;99.90
59307;DHT22;47983;53.016;-2.260;2023-05-29T06:43:13;10.20;99.90
59307;DHT22;47983;53.016;-2.260;2023-05-29T06:45:47;10.30;99.90
59307;DHT22;47983;53.016;-2.260;2023-05-29T06:48:15;10.30;99.90
59307;DHT22;47983;53.016;-2.260;2023-05-29T06:50:45;10.40;99.90
59307;DHT22;47983;53.016;-2.260;2023-05-29T06:53:42;10.40;99.90
59307;DHT22;47983;53.016;-2.260;2023-05-29T06:56:13;10.50;99.90
59307;DHT22;47983;53.016;-2.260;2023-05-29T06:58:43;10.50;99.90
59307;DHT22;47983;53.016;-2.260;2023-05-29T07:01:15;10.60;99.90
59307;DHT22;47983;53.016;-2.260;2023-05-29T07:03:53;10.60;99.90
59307;DHT22;47983;53.016;-2.260;2023-05-29T07:06:21;10.70;99.90
59307;DHT22;47983;53.016;-2.260;2023-05-29T07:08:49;10.80;99.90
59307;DHT22;47983;53.016;-2.260;2023-05-29T07:11:17;10.90;99.90
59307;DHT22;47983;53.016;-2.260;2023-05-29T07:13:45;10.90;99.90
59307;DHT22;47983;53.016;-2.260;2023-05-29T07:18:57;11.10;99.90
59307;DHT22;47983;53.016;-2.260;2023-05-29T07:21:26;11.20;99.90
59307;DHT22;47983;53.016;-2.260;2023-05-29T07:23:54;11.20;99.90
59307;DHT22;47983;53.016;-2.260;2023-05-29T07:26:22;11.30;99.90
59307;DHT22;47983;53.016;-2.260;2023-05-29T07:28:50;11.40;99.90
59307;DHT22;47983;53.016;-2.260;2023-05-29T07:31:19;11.50;99.90
59307;DHT22;47983;53.016;-2.260;2023-05-29T07:33:50;11.60;99.90
59307;DHT22;47983;53.016;-2.260;2023-05-29T07:36:20;11.70;99.90
59307;DHT22;47983;53.016;-2.260;2023-05-29T07:38:50;11.80;99.90
59307;DHT22;47983;53.016;-2.260;2023-05-29T07:41:19;11.90;99.90
59307;DHT22;47983;53.016;-2.260;2023-05-29T07:43:54;12.00;99.90
59307;DHT22;47983;53.016;-2.260;2023-05-29T07:46:23;12.10;99.90
59307;DHT22;47983;53.016;-2.260;2023-05-29T07:49:01;12.20;99.90
59307;DHT22;47983;53.016;-2.260;2023-05-29T07:51:29;12.40;99.90
59307;DHT22;47983;53.016;-2.260;2023-05-29T07:53:57;12.60;99.90
59307;DHT22;47983;53.016;-2.260;2023-05-29T07:56:25;12.50;99.90
59307;DHT22;47983;53.016;-2.260;2023-05-29T08:01:24;12.80;99.90
59307;DHT22;47983;53.016;-2.260;2023-05-29T08:03:52;12.90;99.90
59307;DHT22;47983;53.016;-2.260;2023-05-29T08:06:30;13.00;99.90
59307;DHT22;47983;53.016;-2.260;2023-05-29T08:09:02;13.10;99.90
59307;DHT22;47983;53.016;-2.260;2023-05-29T08:11:32;13.10;99.90
59307;DHT22;47983;53.016;-2.260;2023-05-29T08:14:00;13.20;99.90
59307;DHT22;47983;53.016;-2.260;2023-05-29T08:16:28;13.20;99.90
59307;DHT22;47983;53.016;-2.260;2023-05-29T08:18:57;13.10;99.90
59307;DHT22;47983;53.016;-2.260;2023-05-29T08:21:25;13.10;99.90
59307;DHT22;47983;53.016;-2.260;2023-05-29T08:23:54;13.00;99.90
59307;DHT22;47983;53.016;-2.260;2023-05-29T08:26:22;13.10;99.90
59307;DHT22;47983;53.016;-2.260;2023-05-29T08:28:50;13.10;99.90
59307;DHT22;47983;53.016;-2.260;2023-05-29T08:31:19;13.20;99.90
59307;DHT22;47983;53.016;-2.260;2023-05-29T08:33:47;13.10;99.90
59307;DHT22;47983;53.016;-2.260;2023-05-29T08:36:15;13.10;99.90
59307;DHT22;47983;53.016;-2.260;2023-05-29T08:38:43;13.10;99.90
59307;DHT22;47983;53.016;-2.260;2023-05-29T08:41:19;13.10;99.90
59307;DHT22;47983;53.016;-2.260;2023-05-29T08:43:50;13.20;99.90
59307;DHT22;47983;53.016;-2.260;2023-05-29T08:46:18;13.30;99.90
59307;DHT22;47983;53.016;-2.260;2023-05-29T08:48:48;13.30;99.90
59307;DHT22;47983;53.016;-2.260;2023-05-29T08:51:20;13.40;99.90
59307;DHT22;47983;53.016;-2.260;2023-05-29T08:53:51;13.50;99.90
59307;DHT22;47983;53.016;-2.260;2023-05-29T08:56:19;13.60;99.90
59307;DHT22;47983;53.016;-2.260;2023-05-29T08:59:01;13.80;99.90
59307;DHT22;47983;53.016;-2.260;2023-05-29T09:01:38;14.00;99.90
59307;DHT22;47983;53.016;-2.260;2023-05-29T09:04:06;14.10;99.90
59307;DHT22;47983;53.016;-2.260;2023-05-29T09:06:36;14.10;99.90
59307;DHT22;47983;53.016;-2.260;2023-05-29T09:09:04;14.20;99.90
59307;DHT22;47983;53.016;-2.260;2023-05-29T09:11:33;14.20;99.90
59307;DHT22;47983;53.016;-2.260;2023-05-29T09:14:00;14.30;99.90
59307;DHT22;47983;53.016;-2.260;2023-05-29T09:16:30;14.40;99.90
59307;DHT22;47983;53.016;-2.260;2023-05-29T09:19:05;14.40;99.90
59307;DHT22;47983;53.016;-2.260;2023-05-29T09:21:40;14.50;99.90
59307;DHT22;47983;53.016;-2.260;2023-05-29T09:24:07;14.60;99.90
59307;DHT22;47983;53.016;-2.260;2023-05-29T09:26:36;14.60;99.90
59307;DHT22;47983;53.016;-2.260;2023-05-29T09:29:04;14.60;99.90
59307;DHT22;47983;53.016;-2.260;2023-05-29T09:31:38;14.70;99.90
59307;DHT22;47983;53.016;-2.260;2023-05-29T09:34:07;14.70;99.90
59307;DHT22;47983;53.016;-2.260;2023-05-29T09:36:37;14.70;99.90
59307;DHT22;47983;53.016;-2.260;2023-05-29T09:39:05;14.80;99.90
59307;DHT22;47983;53.016;-2.260;2023-05-29T09:41:47;14.70;99.90
59307;DHT22;47983;53.016;-2.260;2023-05-29T09:44:15;14.80;99.90
59307;DHT22;47983;53.016;-2.260;2023-05-29T09:46:43;14.80;99.90
59307;DHT22;47983;53.016;-2.260;2023-05-29T09:49:13;14.80;99.90
59307;DHT22;47983;53.016;-2.260;2023-05-29T09:51:41;15.00;99.90
59307;DHT22;47983;53.016;-2.260;2023-05-29T09:54:17;15.30;99.90
59307;DHT22;47983;53.016;-2.260;2023-05-29T09:56:46;15.30;99.90
59307;DHT22;47983;53.016;-2.260;2023-05-29T09:59:15;15.40;99.90
59307;DHT22;47983;53.016;-2.260;2023-05-29T10:01:43;15.60;99.90
59307;DHT22;47983;53.016;-2.260;2023-05-29T10:04:12;15.70;99.90
59307;DHT22;47983;53.016;-2.260;2023-05-29T10:06:44;15.90;99.90
59307;DHT22;47983;53.016;-2.260;2023-05-29T10:09:16;16.00;99.90
59307;DHT22;47983;53.016;-2.260;2023-05-29T10:11:47;16.20;99.90
59307;DHT22;47983;53.016;-2.260;2023-05-29T10:14:18;16.30;99.90
59307;DHT22;47983;53.016;-2.260;2023-05-29T10:16:52;16.30;99.90
59307;DHT22;47983;53.016;-2.260;2023-05-29T10:19:29;16.40;99.90
59307;DHT22;47983;53.016;-2.260;2023-05-29T10:22:01;17.10;99.90
59307;DHT22;47983;53.016;-2.260;2023-05-29T10:24:30;16.30;99.90
59307;DHT22;47983;53.016;-2.260;2023-05-29T10:26:58;16.30;99.90
59307;DHT22;47983;53.016;-2.260;2023-05-29T10:29:42;16.20;99.00
59307;DHT22;47983;53.016;-2.260;2023-05-29T10:32:29;16.30;99.30
59307;DHT22;47983;53.016;-2.260;2023-05-29T10:35:07;16.40;99.30
59307;DHT22;47983;53.016;-2.260;2023-05-29T10:37:54;16.60;99.10
59307;DHT22;47983;53.016;-2.260;2023-05-29T10:40:27;16.70;99.40
59307;DHT22;47983;53.016;-2.260;2023-05-29T10:42:55;16.80;98.90
59307;DHT22;47983;53.016;-2.260;2023-05-29T10:50:36;17.20;97.90
59307;DHT22;47983;53.016;-2.260;2023-05-29T10:53:14;17.20;97.20
59307;DHT22;47983;53.016;-2.260;2023-05-29T10:55:45;17.40;97.50
59307;DHT22;47983;53.016;-2.260;2023-05-29T10:58:21;17.50;97.10
59307;DHT22;47983;53.016;-2.260;2023-05-29T11:00:51;17.60;96.80
59307;DHT22;47983;53.016;-2.260;2023-05-29T11:03:25;17.60;95.90
59307;DHT22;47983;53.016;-2.260;2023-05-29T11:08:32;17.80;94.80
59307;DHT22;47983;53.016;-2.260;2023-05-29T11:11:02;17.70;95.00
59307;DHT22;47983;53.016;-2.260;2023-05-29T11:13:33;17.80;94.90
59307;DHT22;47983;53.016;-2.260;2023-05-29T11:18:39;17.90;94.60
59307;DHT22;47983;53.016;-2.260;2023-05-29T11:24:27;18.10;94.50
59307;DHT22;47983;53.016;-2.260;2023-05-29T11:26:56;18.20;94.30
59307;DHT22;47983;53.016;-2.260;2023-05-29T11:29:28;18.30;94.30
59307;DHT22;47983;53.016;-2.260;2023-05-29T11:32:04;18.40;93.60
59307;DHT22;47983;53.016;-2.260;2023-05-29T11:34:33;18.50;93.70
59307;DHT22;47983;53.016;-2.260;2023-05-29T11:37:02;18.60;93.80
59307;DHT22;47983;53.016;-2.260;2023-05-29T11:39:30;18.80;92.60
59307;DHT22;47983;53.016;-2.260;2023-05-29T11:42:00;18.90;92.40
59307;DHT22;47983;53.016;-2.260;2023-05-29T11:44:28;18.90;91.70
59307;DHT22;47983;53.016;-2.260;2023-05-29T11:47:05;18.90;91.10
59307;DHT22;47983;53.016;-2.260;2023-05-29T11:49:36;18.90;91.50
59307;DHT22;47983;53.016;-2.260;2023-05-29T11:52:10;19.00;91.30
59307;DHT22;47983;53.016;-2.260;2023-05-29T11:54:44;19.20;91.10
59307;DHT22;47983;53.016;-2.260;2023-05-29T11:57:18;19.30;91.20
59307;DHT22;47983;53.016;-2.260;2023-05-29T11:59:49;19.50;90.90
59307;DHT22;47983;53.016;-2.260;2023-05-29T12:02:17;19.60;90.60
59307;DHT22;47983;53.016;-2.260;2023-05-29T12:05:00;19.90;90.00
59307;DHT22;47983;53.016;-2.260;2023-05-29T12:07:28;20.10;88.90
59307;DHT22;47983;53.016;-2.260;2023-05-29T12:09:56;20.20;88.30
59307;DHT22;47983;53.016;-2.260;2023-05-29T12:12:27;20.50;86.60
59307;DHT22;47983;53.016;-2.260;2023-05-29T12:14:56;20.60;85.70
59307;DHT22;47983;53.016;-2.260;2023-05-29T12:17:26;20.70;83.80
59307;DHT22;47983;53.016;-2.260;2023-05-29T12:19:56;20.90;83.80
59307;DHT22;47983;53.016;-2.260;2023-05-29T12:22:33;21.20;85.70
59307;DHT22;47983;53.016;-2.260;2023-05-29T12:25:13;21.40;84.90
59307;DHT22;47983;53.016;-2.260;2023-05-29T12:27:43;21.60;81.80
59307;DHT22;47983;53.016;-2.260;2023-05-29T12:30:14;21.70;81.40
59307;DHT22;47983;53.016;-2.260;2023-05-29T12:33:00;21.50;80.30
59307;DHT22;47983;53.016;-2.260;2023-05-29T12:35:29;21.70;80.60
59307;DHT22;47983;53.016;-2.260;2023-05-29T12:37:59;21.60;79.30
59307;DHT22;47983;53.016;-2.260;2023-05-29T12:40:29;21.60;80.50
59307;DHT22;47983;53.016;-2.260;2023-05-29T12:43:00;21.60;81.00
59307;DHT22;47983;53.016;-2.260;2023-05-29T12:45:30;21.80;79.70
59307;DHT22;47983;53.016;-2.260;2023-05-29T12:48:02;21.80;79.60
59307;DHT22;47983;53.016;-2.260;2023-05-29T12:50:33;21.90;78.50
59307;DHT22;47983;53.016;-2.260;2023-05-29T12:53:01;21.90;79.30
59307;DHT22;47983;53.016;-2.260;2023-05-29T12:55:31;22.00;79.50
59307;DHT22;47983;53.016;-2.260;2023-05-29T12:58:13;22.10;79.40
59307;DHT22;47983;53.016;-2.260;2023-05-29T13:00:43;22.50;79.60
59307;DHT22;47983;53.016;-2.260;2023-05-29T13:03:11;22.80;77.40
59307;DHT22;47983;53.016;-2.260;2023-05-29T13:05:40;22.90;76.90
59307;DHT22;47983;53.016;-2.260;2023-05-29T13:08:07;23.20;77.80
59307;DHT22;47983;53.016;-2.260;2023-05-29T13:10:36;23.50;77.30
59307;DHT22;47983;53.016;-2.260;2023-05-29T13:15:32;23.90;73.30
59307;DHT22;47983;53.016;-2.260;2023-05-29T13:18:04;24.00;73.90
59307;DHT22;47983;53.016;-2.260;2023-05-29T13:20:32;24.20;71.40
59307;DHT22;47983;53.016;-2.260;2023-05-29T13:23:01;24.20;72.00
59307;DHT22;47983;53.016;-2.260;2023-05-29T13:25:29;24.30;71.80
59307;DHT22;47983;53.016;-2.260;2023-05-29T13:27:56;24.50;72.00
59307;DHT22;47983;53.016;-2.260;2023-05-29T13:30:24;24.40;69.90
59307;DHT22;47983;53.016;-2.260;2023-05-29T13:32:53;24.30;70.50
59307;DHT22;47983;53.016;-2.260;2023-05-29T13:35:21;24.10;69.30
59307;DHT22;47983;53.016;-2.260;2023-05-29T13:37:49;24.00;71.30
59307;DHT22;47983;53.016;-2.260;2023-05-29T13:40:17;24.10;71.40
59307;DHT22;47983;53.016;-2.260;2023-05-29T13:42:45;24.30;71.30
59307;DHT22;47983;53.016;-2.260;2023-05-29T13:45:13;24.20;69.60
59307;DHT22;47983;53.016;-2.260;2023-05-29T13:47:42;24.20;70.30
59307;DHT22;47983;53.016;-2.260;2023-05-29T13:50:11;24.30;69.50
59307;DHT22;47983;53.016;-2.260;2023-05-29T13:52:38;24.20;68.70
59307;DHT22;47983;53.016;-2.260;2023-05-29T13:55:07;24.10;68.50
59307;DHT22;47983;53.016;-2.260;2023-05-29T13:57:36;23.90;67.00
59307;DHT22;47983;53.016;-2.260;2023-05-29T14:00:05;23.80;68.60
59307;DHT22;47983;53.016;-2.260;2023-05-29T14:02:37;23.70;67.10
59307;DHT22;47983;53.016;-2.260;2023-05-29T14:05:06;23.70;68.50
59307;DHT22;47983;53.016;-2.260;2023-05-29T14:07:34;23.70;67.20
59307;DHT22;47983;53.016;-2.260;2023-05-29T14:10:02;23.70;66.30
59307;DHT22;47983;53.016;-2.260;2023-05-29T14:12:31;23.70;66.40
59307;DHT22;47983;53.016;-2.260;2023-05-29T14:14:59;23.70;67.50
59307;DHT22;47983;53.016;-2.260;2023-05-29T14:17:27;24.00;67.60
59307;DHT22;47983;53.016;-2.260;2023-05-29T14:19:54;24.10;66.90
59307;DHT22;47983;53.016;-2.260;2023-05-29T14:22:23;24.20;65.80
59307;DHT22;47983;53.016;-2.260;2023-05-29T14:24:51;24.30;66.50
59307;DHT22;47983;53.016;-2.260;2023-05-29T14:27:18;24.40;65.30
59307;DHT22;47983;53.016;-2.260;2023-05-29T14:29:49;24.40;65.90
59307;DHT22;47983;53.016;-2.260;2023-05-29T14:32:18;24.50;66.50
59307;DHT22;47983;53.016;-2.260;2023-05-29T14:34:45;24.60;65.20
59307;DHT22;47983;53.016;-2.260;2023-05-29T14:37:13;24.50;65.30
59307;DHT22;47983;53.016;-2.260;2023-05-29T14:39:41;24.40;65.70
59307;DHT22;47983;53.016;-2.260;2023-05-29T14:42:09;24.20;65.50
59307;DHT22;47983;53.016;-2.260;2023-05-29T14:44:37;24.00;66.30
59307;DHT22;47983;53.016;-2.260;2023-05-29T14:47:05;24.10;67.50
59307;DHT22;47983;53.016;-2.260;2023-05-29T14:49:33;24.20;67.10
59307;DHT22;47983;53.016;-2.260;2023-05-29T14:52:03;24.30;65.60
59307;DHT22;47983;53.016;-2.260;2023-05-29T14:54:35;24.30;65.00
59307;DHT22;47983;53.016;-2.260;2023-05-29T14:57:03;24.30;65.00
59307;DHT22;47983;53.016;-2.260;2023-05-29T14:59:31;24.40;65.20
59307;DHT22;47983;53.016;-2.260;2023-05-29T15:01:59;24.40;63.80
59307;DHT22;47983;53.016;-2.260;2023-05-29T15:04:27;24.60;64.50
59307;DHT22;47983;53.016;-2.260;2023-05-29T15:06:55;24.70;64.10
59307;DHT22;47983;53.016;-2.260;2023-05-29T15:09:33;24.60;62.60
59307;DHT22;47983;53.016;-2.260;2023-05-29T15:12:01;24.60;62.20
59307;DHT22;47983;53.016;-2.260;2023-05-29T15:14:30;24.60;62.80
59307;DHT22;47983;53.016;-2.260;2023-05-29T15:16:58;24.70;62.50
59307;DHT22;47983;53.016;-2.260;2023-05-29T15:19:27;24.70;62.40
59307;DHT22;47983;53.016;-2.260;2023-05-29T15:21:55;24.70;62.10
59307;DHT22;47983;53.016;-2.260;2023-05-29T15:24:24;24.90;62.50
59307;DHT22;47983;53.016;-2.260;2023-05-29T15:26:51;24.80;63.10
59307;DHT22;47983;53.016;-2.260;2023-05-29T15:29:19;24.90;63.90
59307;DHT22;47983;53.016;-2.260;2023-05-29T15:31:48;25.00;64.30
59307;DHT22;47983;53.016;-2.260;2023-05-29T15:34:17;25.10;64.20
59307;DHT22;47983;53.016;-2.260;2023-05-29T15:36:45;25.10;63.00
59307;DHT22;47983;53.016;-2.260;2023-05-29T15:39:14;25.30;63.40
59307;DHT22;47983;53.016;-2.260;2023-05-29T15:41:42;25.30;63.50
59307;DHT22;47983;53.016;-2.260;2023-05-29T15:44:12;25.50;60.70
59307;DHT22;47983;53.016;-2.260;2023-05-29T15:46:40;25.50;61.40
59307;DHT22;47983;53.016;-2.260;2023-05-29T15:49:09;25.60;61.20
59307;DHT22;47983;53.016;-2.260;2023-05-29T15:51:36;25.60;62.00
59307;DHT22;47983;53.016;-2.260;2023-05-29T15:54:08;25.50;62.10
59307;DHT22;47983;53.016;-2.260;2023-05-29T15:56:36;25.50;62.80
59307;DHT22;47983;53.016;-2.260;2023-05-29T15:59:04;25.60;63.00
59307;DHT22;47983;53.016;-2.260;2023-05-29T16:01:33;25.80;62.80
59307;DHT22;47983;53.016;-2.260;2023-05-29T16:04:01;26.00;62.40
59307;DHT22;47983;53.016;-2.260;2023-05-29T16:06:31;26.20;62.50
59307;DHT22;47983;53.016;-2.260;2023-05-29T16:08:59;26.20;60.70